createdAt,value
2019-01-23T00:00:53.504Z,0.00
2019-01-23T00:01:53.510Z,0.00
2019-01-23T00:02:53.484Z,0.00
2019-01-23T00:03:53.468Z,0.00
2019-01-23T00:04:53.476Z,0.00
2019-01-23T00:05:53.456Z,0.00
2019-01-23T00:06:53.464Z,0.00
2019-01-23T00:07:53.432Z,0.00
2019-01-23T00:08:53.421Z,0.00
2019-01-23T00:09:53.411Z,0.00
2019-01-23T00:10:53.399Z,0.00
2019-01-23T00:11:53.408Z,0.00
2019-01-23T00:12:53.385Z,0.00
2019-01-23T00:13:53.373Z,0.00
2019-01-23T00:14:53.358Z,0.00
2019-01-23T00:15:53.345Z,0.00
2019-01-23T00:16:53.359Z,0.00
2019-01-23T00:17:53.328Z,0.00
2019-01-23T00:18:53.327Z,0.00
2019-01-23T00:19:53.304Z,0.00
2019-01-23T00:21:00.837Z,0.00
2019-01-23T00:21:53.296Z,0.00
2019-01-23T00:22:53.328Z,0.00
2019-01-23T00:23:53.261Z,0.00
2019-01-23T00:24:53.257Z,0.00
2019-01-23T00:25:53.252Z,0.00
2019-01-23T00:26:53.233Z,0.00
2019-01-23T00:27:53.221Z,0.00
2019-01-23T00:28:53.233Z,0.00
2019-01-23T00:29:53.200Z,0.00
2019-01-23T00:30:53.197Z,0.00
2019-01-23T00:31:53.179Z,0.00
2019-01-23T00:32:53.170Z,0.00
2019-01-23T00:33:53.179Z,0.00
2019-01-23T00:34:53.148Z,0.00
2019-01-23T00:35:53.142Z,0.00
2019-01-23T00:36:53.131Z,0.00
2019-01-23T00:37:53.131Z,0.00
2019-01-23T00:38:53.147Z,0.00
2019-01-23T00:39:53.097Z,0.00
2019-01-23T00:40:53.102Z,0.00
2019-01-23T00:41:53.074Z,0.00
2019-01-23T00:42:53.067Z,0.00
2019-01-23T00:43:53.066Z,0.00
2019-01-23T00:44:53.072Z,0.00
2019-01-23T00:45:53.033Z,0.00
2019-01-23T00:46:53.023Z,0.00
2019-01-23T00:47:53.009Z,0.00
2019-01-23T00:48:53.055Z,0.00
2019-01-23T00:49:52.996Z,0.00
2019-01-23T00:50:52.989Z,0.00
2019-01-23T00:51:52.974Z,0.00
2019-01-23T00:52:52.966Z,0.00
2019-01-23T00:53:52.995Z,0.00
2019-01-23T00:54:52.965Z,0.00
2019-01-23T00:55:52.959Z,0.00
2019-01-23T00:56:52.922Z,0.00
2019-01-23T00:57:52.914Z,0.00
2019-01-23T00:58:52.904Z,0.00
2019-01-23T00:59:52.917Z,0.00
2019-01-23T01:00:52.885Z,0.00
2019-01-23T01:02:01.428Z,0.00
2019-01-23T01:03:01.405Z,0.00
2019-01-23T01:04:02.770Z,0.00
2019-01-23T01:05:00.419Z,0.00
2019-01-23T01:06:01.639Z,0.00
2019-01-23T01:06:52.815Z,0.00
2019-01-23T01:07:52.809Z,0.00
2019-01-23T01:08:52.817Z,0.00
2019-01-23T01:09:52.783Z,0.00
2019-01-23T01:10:52.778Z,0.00
2019-01-23T01:11:52.809Z,0.00
2019-01-23T01:12:52.758Z,0.00
2019-01-23T01:13:52.752Z,0.00
2019-01-23T01:14:52.754Z,0.00
2019-01-23T01:15:52.720Z,0.00
2019-01-23T01:16:52.773Z,0.00
2019-01-23T01:17:52.695Z,0.00
2019-01-23T01:18:52.692Z,0.00
2019-01-23T01:19:52.702Z,0.00
2019-01-23T01:20:52.668Z,0.00
2019-01-23T01:21:52.661Z,0.00
2019-01-23T01:22:52.665Z,0.00
2019-01-23T01:24:01.405Z,0.00
2019-01-23T01:24:52.627Z,0.00
2019-01-23T01:25:52.632Z,0.00
2019-01-23T01:26:52.605Z,0.00
2019-01-23T01:27:52.632Z,0.00
2019-01-23T01:28:56.070Z,0.00
2019-01-23T01:29:52.571Z,0.00
2019-01-23T01:30:52.610Z,0.00
2019-01-23T01:32:00.099Z,0.00
2019-01-23T01:32:52.545Z,0.00
2019-01-23T01:33:52.533Z,0.00
2019-01-23T01:34:52.598Z,0.00
2019-01-23T01:35:52.542Z,0.00
2019-01-23T01:36:52.502Z,0.00
2019-01-23T01:37:52.492Z,0.00
2019-01-23T01:38:52.523Z,0.00
2019-01-23T01:39:52.493Z,0.00
2019-01-23T01:40:52.469Z,0.00
2019-01-23T01:41:52.468Z,0.00
2019-01-23T01:42:52.441Z,0.00
2019-01-23T01:43:52.485Z,0.00
2019-01-23T01:44:52.457Z,0.00
2019-01-23T01:45:52.405Z,0.00
2019-01-23T01:46:52.407Z,0.00
2019-01-23T01:47:52.408Z,0.00
2019-01-23T01:48:52.378Z,0.00
2019-01-23T01:49:52.410Z,0.00
2019-01-23T01:50:52.376Z,0.00
2019-01-23T01:51:52.340Z,0.00
2019-01-23T01:52:52.348Z,0.00
2019-01-23T01:53:52.342Z,0.00
2019-01-23T01:54:52.309Z,0.00
2019-01-23T01:55:52.323Z,0.00
2019-01-23T01:56:52.286Z,0.00
2019-01-23T01:57:52.295Z,0.00
2019-01-23T01:58:52.277Z,0.00
2019-01-23T01:59:52.259Z,0.00
2019-01-23T02:00:52.281Z,0.00
2019-01-23T02:01:52.234Z,0.00
2019-01-23T02:02:52.228Z,0.00
2019-01-23T02:03:52.261Z,0.00
2019-01-23T02:04:52.206Z,0.00
2019-01-23T02:05:52.234Z,0.00
2019-01-23T02:06:52.183Z,0.00
2019-01-23T02:07:52.178Z,0.00
2019-01-23T02:08:52.164Z,0.00
2019-01-23T02:09:52.164Z,0.00
2019-01-23T02:10:52.144Z,0.00
2019-01-23T02:11:52.154Z,0.00
2019-01-23T02:12:52.135Z,0.00
2019-01-23T02:13:52.114Z,0.00
2019-01-23T02:14:52.097Z,0.00
2019-01-23T02:15:52.092Z,0.00
2019-01-23T02:16:52.102Z,0.00
2019-01-23T02:17:52.070Z,0.00
2019-01-23T02:18:52.066Z,0.00
2019-01-23T02:19:52.052Z,0.00
2019-01-23T02:20:52.039Z,0.00
2019-01-23T02:21:52.044Z,0.00
2019-01-23T02:22:52.015Z,0.00
2019-01-23T02:23:52.018Z,0.00
2019-01-23T02:24:51.998Z,0.00
2019-01-23T02:25:51.999Z,0.00
2019-01-23T02:26:52.002Z,0.00
2019-01-23T02:27:51.970Z,0.00
2019-01-23T02:28:51.965Z,0.00
2019-01-23T02:29:51.972Z,0.00
2019-01-23T02:30:51.965Z,0.00
2019-01-23T02:31:51.941Z,0.00
2019-01-23T02:32:51.922Z,0.00
2019-01-23T02:33:51.912Z,0.00
2019-01-23T02:34:51.894Z,0.00
2019-01-23T02:35:51.898Z,0.00
2019-01-23T02:36:51.897Z,0.00
2019-01-23T02:37:51.862Z,0.00
2019-01-23T02:38:51.852Z,0.00
2019-01-23T02:39:51.838Z,0.00
2019-01-23T02:40:51.830Z,0.00
2019-01-23T02:41:51.861Z,0.00
2019-01-23T02:42:51.816Z,0.00
2019-01-23T02:43:51.795Z,0.00
2019-01-23T02:44:51.784Z,0.00
2019-01-23T02:45:51.781Z,0.00
2019-01-23T02:46:51.781Z,0.00
2019-01-23T02:47:51.777Z,0.00
2019-01-23T02:48:51.746Z,0.00
2019-01-23T02:49:51.737Z,0.00
2019-01-23T02:50:51.725Z,0.00
2019-01-23T02:51:51.711Z,0.00
2019-01-23T02:52:51.722Z,0.00
2019-01-23T02:53:51.705Z,0.00
2019-01-23T02:54:51.682Z,0.00
2019-01-23T02:55:51.670Z,0.00
2019-01-23T02:56:51.662Z,0.00
2019-01-23T02:57:51.678Z,0.00
2019-01-23T02:58:51.650Z,0.00
2019-01-23T02:59:51.649Z,0.00
2019-01-23T03:00:51.625Z,0.00
2019-01-23T03:01:51.611Z,0.00
2019-01-23T03:02:51.624Z,0.00
2019-01-23T03:03:51.589Z,0.00
2019-01-23T03:04:51.582Z,0.00
2019-01-23T03:05:51.573Z,0.00
2019-01-23T03:06:51.559Z,0.00
2019-01-23T03:07:51.547Z,0.00
2019-01-23T03:08:51.553Z,0.00
2019-01-23T03:09:51.525Z,0.00
2019-01-23T03:10:51.514Z,0.00
2019-01-23T03:11:51.501Z,0.00
2019-01-23T03:12:51.511Z,0.00
2019-01-23T03:13:51.504Z,0.00
2019-01-23T03:14:51.472Z,0.00
2019-01-23T03:15:51.464Z,0.00
2019-01-23T03:16:51.473Z,0.00
2019-01-23T03:17:51.454Z,0.00
2019-01-23T03:18:51.488Z,0.00
2019-01-23T03:19:51.423Z,0.00
2019-01-23T03:20:51.428Z,0.00
2019-01-23T03:21:51.402Z,0.00
2019-01-23T03:22:51.388Z,0.00
2019-01-23T03:23:51.408Z,0.00
2019-01-23T03:24:51.372Z,0.00
2019-01-23T03:25:51.359Z,0.00
2019-01-23T03:26:51.347Z,0.00
2019-01-23T03:27:51.344Z,0.00
2019-01-23T03:28:51.333Z,0.00
2019-01-23T03:30:00.962Z,0.00
2019-01-23T03:30:51.300Z,0.00
2019-01-23T03:31:51.290Z,0.00
2019-01-23T03:32:51.298Z,0.00
2019-01-23T03:33:51.269Z,0.00
2019-01-23T03:34:51.314Z,0.00
2019-01-23T03:35:51.249Z,0.00
2019-01-23T03:36:51.240Z,0.00
2019-01-23T03:37:51.229Z,0.00
2019-01-23T03:38:51.236Z,0.00
2019-01-23T03:39:51.225Z,0.00
2019-01-23T03:40:51.226Z,0.00
2019-01-23T03:41:51.189Z,0.00
2019-01-23T03:42:51.177Z,0.00
2019-01-23T03:43:51.167Z,0.00
2019-01-23T03:44:51.157Z,0.00
2019-01-23T03:45:51.159Z,0.00
2019-01-23T03:46:51.157Z,0.00
2019-01-23T03:47:51.126Z,0.00
2019-01-23T03:48:51.116Z,0.00
2019-01-23T03:49:51.100Z,0.00
2019-01-23T03:50:51.124Z,0.00
2019-01-23T03:51:51.094Z,0.00
2019-01-23T03:52:51.077Z,0.00
2019-01-23T03:53:51.068Z,0.00
2019-01-23T03:54:51.055Z,0.00
2019-01-23T03:55:51.077Z,0.00
2019-01-23T03:56:51.027Z,0.00
2019-01-23T03:57:51.024Z,0.00
2019-01-23T03:58:51.010Z,0.00
2019-01-23T03:59:51.018Z,0.00
2019-01-23T04:00:51.004Z,0.00
2019-01-23T04:01:50.985Z,0.00
2019-01-23T04:02:51.032Z,0.00
2019-01-23T04:03:50.968Z,0.00
2019-01-23T04:04:50.942Z,0.00
2019-01-23T04:05:50.982Z,0.00
2019-01-23T04:06:50.925Z,0.00
2019-01-23T04:07:50.912Z,0.00
2019-01-23T04:08:50.908Z,0.00
2019-01-23T04:09:50.927Z,0.00
2019-01-23T04:10:50.893Z,0.00
2019-01-23T04:11:50.934Z,0.00
2019-01-23T04:12:50.949Z,0.00
2019-01-23T04:13:50.856Z,0.00
2019-01-23T04:14:50.855Z,0.00
2019-01-23T04:15:50.881Z,0.00
2019-01-23T04:16:50.855Z,0.00
2019-01-23T04:17:50.815Z,0.00
2019-01-23T04:18:50.853Z,0.00
2019-01-23T04:19:50.875Z,0.00
2019-01-23T04:20:50.815Z,0.00
2019-01-23T04:21:50.807Z,0.00
2019-01-23T04:22:50.771Z,0.00
2019-01-23T04:23:50.767Z,0.00
2019-01-23T04:24:50.776Z,0.00
2019-01-23T04:25:50.733Z,0.00
2019-01-23T04:28:06.914Z,0.00
2019-01-23T04:29:06.877Z,0.00
2019-01-23T04:30:06.875Z,0.00
2019-01-23T04:31:06.858Z,0.00
2019-01-23T04:32:06.856Z,0.00
2019-01-23T04:33:06.852Z,0.00
2019-01-23T04:34:06.822Z,0.00
2019-01-23T04:35:06.821Z,0.00
2019-01-23T04:37:47.187Z,0.00
2019-01-23T04:38:47.134Z,0.00
2019-01-23T04:39:47.130Z,0.00
2019-01-23T04:40:47.126Z,0.00
2019-01-23T04:41:47.111Z,0.00
2019-01-23T04:42:47.162Z,0.00
2019-01-23T04:43:47.112Z,0.00
2019-01-23T04:46:18.298Z,0.00
2019-01-23T04:48:27.530Z,0.00
2019-01-23T04:49:35.042Z,0.00
2019-01-23T04:50:27.524Z,0.00
2019-01-23T04:51:27.483Z,0.00
2019-01-23T04:53:38.864Z,0.00
2019-01-23T04:54:38.721Z,0.00
2019-01-23T04:55:38.703Z,0.00
2019-01-23T04:56:38.690Z,0.00
2019-01-23T04:57:38.698Z,0.00
2019-01-23T04:58:38.686Z,0.00
2019-01-23T04:59:38.698Z,0.00
2019-01-23T05:00:38.644Z,0.00
2019-01-23T05:01:47.182Z,0.00
2019-01-23T05:02:38.643Z,0.00
2019-01-23T05:03:38.627Z,0.00
2019-01-23T05:04:38.597Z,0.00
2019-01-23T05:05:38.583Z,0.00
2019-01-23T05:06:38.572Z,0.00
2019-01-23T05:07:38.565Z,0.00
2019-01-23T05:08:38.582Z,0.00
2019-01-23T05:09:38.541Z,0.00
2019-01-23T05:10:38.533Z,0.00
2019-01-23T05:11:38.528Z,0.00
2019-01-23T05:12:38.513Z,0.00
2019-01-23T05:13:38.519Z,0.00
2019-01-23T05:14:38.499Z,0.00
2019-01-23T05:15:38.476Z,0.00
2019-01-23T05:16:38.465Z,0.00
2019-01-23T05:17:38.473Z,0.00
2019-01-23T05:18:38.446Z,0.00
2019-01-23T05:19:38.458Z,0.00
2019-01-23T05:20:38.428Z,0.00
2019-01-23T05:21:38.411Z,0.00
2019-01-23T05:22:38.410Z,0.00
2019-01-23T05:23:38.426Z,0.00
2019-01-23T05:24:38.385Z,0.00
2019-01-23T05:25:38.404Z,0.00
2019-01-23T05:26:46.690Z,0.00
2019-01-23T05:27:38.431Z,0.00
2019-01-23T05:28:38.359Z,0.00
2019-01-23T05:29:38.326Z,0.00
2019-01-23T05:30:38.325Z,0.00
2019-01-23T05:31:38.303Z,0.00
2019-01-23T05:32:38.300Z,0.00
2019-01-23T05:33:38.347Z,0.00
2019-01-23T05:34:38.287Z,0.00
2019-01-23T05:35:38.269Z,0.00
2019-01-23T05:36:38.262Z,0.00
2019-01-23T05:37:38.246Z,0.00
2019-01-23T05:38:38.239Z,0.00
2019-01-23T05:39:38.265Z,0.00
2019-01-23T05:40:38.223Z,0.00
2019-01-23T05:41:38.202Z,0.00
2019-01-23T05:42:38.204Z,0.00
2019-01-23T05:43:38.183Z,0.00
2019-01-23T05:44:38.201Z,0.00
2019-01-23T05:45:38.160Z,0.00
2019-01-23T05:46:38.151Z,0.00
2019-01-23T05:47:38.147Z,0.00
2019-01-23T05:48:38.135Z,0.00
2019-01-23T05:49:38.165Z,0.00
2019-01-23T05:50:38.110Z,0.00
2019-01-23T05:51:38.105Z,0.00
2019-01-23T05:52:38.090Z,0.00
2019-01-23T05:53:45.652Z,0.00
2019-01-23T05:54:38.071Z,0.00
2019-01-23T05:55:38.075Z,0.00
2019-01-23T05:56:38.079Z,0.00
2019-01-23T05:57:46.587Z,0.00
2019-01-23T05:58:38.023Z,0.00
2019-01-23T05:59:38.016Z,0.00
2019-01-23T06:00:38.059Z,0.00
2019-01-23T06:01:37.991Z,0.00
2019-01-23T06:02:38.036Z,0.00
2019-01-23T06:03:38.056Z,0.00
2019-01-23T06:04:37.967Z,0.00
2019-01-23T06:05:37.973Z,0.00
2019-01-23T06:06:37.955Z,0.00
2019-01-23T06:07:37.928Z,0.00
2019-01-23T06:08:37.927Z,0.00
2019-01-23T06:09:37.917Z,0.00
2019-01-23T06:10:37.973Z,0.00
2019-01-23T06:11:37.893Z,0.00
2019-01-23T06:12:37.913Z,0.00
2019-01-23T06:13:37.893Z,0.00
2019-01-23T06:14:37.859Z,0.00
2019-01-23T06:15:37.886Z,0.00
2019-01-23T06:16:37.878Z,0.00
2019-01-23T06:17:37.825Z,0.00
2019-01-23T06:18:37.881Z,0.00
2019-01-23T06:19:37.806Z,0.00
2019-01-23T06:20:37.814Z,0.00
2019-01-23T06:21:37.863Z,0.00
2019-01-23T06:22:37.770Z,0.00
2019-01-23T06:23:37.768Z,0.00
2019-01-23T06:24:37.753Z,4.00
2019-01-23T06:25:37.811Z,4.00
2019-01-23T06:27:47.957Z,4.00
2019-01-23T06:28:47.944Z,4.00
2019-01-23T06:29:47.941Z,4.00
2019-01-23T06:30:56.034Z,4.00
2019-01-23T06:31:57.769Z,4.00
2019-01-23T06:32:47.922Z,4.00
2019-01-23T06:33:55.490Z,4.00
2019-01-23T06:34:47.914Z,4.00
2019-01-23T06:35:47.873Z,4.00
2019-01-23T06:36:47.887Z,4.00
2019-01-23T06:37:47.851Z,4.00
2019-01-23T06:38:47.869Z,4.00
2019-01-23T06:39:47.876Z,4.00
2019-01-23T06:40:47.819Z,4.00
2019-01-23T06:41:47.850Z,4.00
2019-01-23T06:42:47.796Z,4.00
2019-01-23T06:43:47.789Z,4.00
2019-01-23T06:44:47.789Z,4.00
2019-01-23T06:45:47.766Z,4.00
2019-01-23T06:46:47.996Z,4.00
2019-01-23T06:47:47.780Z,4.00
2019-01-23T06:48:47.754Z,4.00
2019-01-23T06:49:47.726Z,4.00
2019-01-23T06:50:47.744Z,4.00
2019-01-23T06:51:47.704Z,4.00
2019-01-23T06:52:47.717Z,4.00
2019-01-23T06:53:47.797Z,4.00
2019-01-23T06:54:47.678Z,4.00
2019-01-23T06:55:47.663Z,4.00
2019-01-23T06:56:47.662Z,0.00
2019-01-23T06:57:47.674Z,0.00
2019-01-23T06:58:47.634Z,4.00
2019-01-23T06:59:47.622Z,4.00
2019-01-23T07:00:47.636Z,4.00
2019-01-23T07:01:47.603Z,8.00
2019-01-23T07:02:47.610Z,4.00
2019-01-23T07:03:47.619Z,8.00
2019-01-23T07:04:47.567Z,8.00
2019-01-23T07:05:47.557Z,8.00
2019-01-23T07:06:47.553Z,8.00
2019-01-23T07:07:47.627Z,12.00
2019-01-23T07:08:47.528Z,12.00
2019-01-23T07:09:47.555Z,12.00
2019-01-23T07:10:47.505Z,16.00
2019-01-23T07:11:47.501Z,16.00
2019-01-23T07:12:47.482Z,20.00
2019-01-23T07:13:47.497Z,20.00
2019-01-23T07:14:47.462Z,24.00
2019-01-23T07:15:47.469Z,24.00
2019-01-23T07:16:47.443Z,28.00
2019-01-23T07:17:47.433Z,32.00
2019-01-23T07:18:47.451Z,36.00
2019-01-23T07:19:47.411Z,40.00
2019-01-23T07:20:47.400Z,44.00
2019-01-23T07:21:54.953Z,48.00
2019-01-23T07:22:54.920Z,52.00
2019-01-23T07:23:57.432Z,56.00
2019-01-23T07:24:54.915Z,60.00
2019-01-23T07:25:54.893Z,68.00
2019-01-23T07:26:55.894Z,76.00
2019-01-23T07:27:54.870Z,84.00
2019-01-23T07:28:56.078Z,92.00
2019-01-23T07:29:54.851Z,100.00
2019-01-23T07:30:54.856Z,112.00
2019-01-23T07:31:54.833Z,124.00
2019-01-23T07:32:55.832Z,136.00
2019-01-23T07:33:57.277Z,148.00
2019-01-23T07:34:47.279Z,160.00
2019-01-23T07:35:47.245Z,176.00
2019-01-23T07:36:47.233Z,184.00
2019-01-23T07:37:47.233Z,196.00
2019-01-23T07:38:47.241Z,212.00
2019-01-23T07:39:47.240Z,224.00
2019-01-23T07:40:47.197Z,236.00
2019-01-23T07:41:47.183Z,248.00
2019-01-23T07:42:47.237Z,264.00
2019-01-23T07:43:55.806Z,280.00
2019-01-23T07:44:47.153Z,292.00
2019-01-23T07:45:47.137Z,304.00
2019-01-23T07:46:47.129Z,320.00
2019-01-23T07:47:47.118Z,344.00
2019-01-23T07:48:47.115Z,360.00
2019-01-23T07:49:47.122Z,380.00
2019-01-23T07:50:47.096Z,400.00
2019-01-23T07:51:47.078Z,420.00
2019-01-23T07:52:47.066Z,440.00
2019-01-23T07:53:47.064Z,460.00
2019-01-23T07:54:47.070Z,484.00
2019-01-23T07:55:47.042Z,496.00
2019-01-23T07:56:47.029Z,520.00
2019-01-23T07:57:47.011Z,540.00
2019-01-23T07:58:47.001Z,560.00
2019-01-23T07:59:47.002Z,584.00
2019-01-23T08:00:47.003Z,608.00
2019-01-23T08:01:46.971Z,628.00
2019-01-23T08:02:46.960Z,652.00
2019-01-23T08:03:46.948Z,676.00
2019-01-23T08:04:46.938Z,696.00
2019-01-23T08:05:46.970Z,716.00
2019-01-23T08:06:46.921Z,728.00
2019-01-23T08:07:46.909Z,740.00
2019-01-23T08:08:46.896Z,744.00
2019-01-23T08:09:46.887Z,744.00
2019-01-23T08:10:46.899Z,744.00
2019-01-23T08:11:46.879Z,748.00
2019-01-23T08:12:46.858Z,756.00
2019-01-23T08:13:46.900Z,764.00
2019-01-23T08:14:46.838Z,768.00
2019-01-23T08:15:46.840Z,780.00
2019-01-23T08:16:46.812Z,796.00
2019-01-23T08:17:46.835Z,820.00
2019-01-23T08:18:46.793Z,856.00
2019-01-23T08:19:46.784Z,888.00
2019-01-23T08:20:46.789Z,932.00
2019-01-23T08:21:46.762Z,968.00
2019-01-23T08:22:46.754Z,1000.00
2019-01-23T08:23:46.757Z,1020.00
2019-01-23T08:24:46.730Z,1028.00
2019-01-23T08:25:46.738Z,1024.00
2019-01-23T08:26:46.711Z,1028.00
2019-01-23T08:27:46.702Z,1036.00
2019-01-23T08:28:54.225Z,1052.00
2019-01-23T08:29:54.217Z,1072.00
2019-01-23T08:30:57.407Z,1104.00
2019-01-23T08:31:54.197Z,1140.00
2019-01-23T08:32:54.186Z,1168.00
2019-01-23T08:33:54.174Z,1204.00
2019-01-23T08:34:56.466Z,1244.00
2019-01-23T08:35:46.632Z,1296.00
2019-01-23T08:36:46.602Z,1348.00
2019-01-23T08:37:46.593Z,1408.00
2019-01-23T08:38:46.583Z,1460.00
2019-01-23T08:39:46.571Z,1508.00
2019-01-23T08:40:46.581Z,1540.00
2019-01-23T08:41:55.129Z,1568.00
2019-01-23T08:42:46.540Z,1580.00
2019-01-23T08:43:46.538Z,1588.00
2019-01-23T08:44:46.523Z,1572.00
2019-01-23T08:45:46.533Z,1560.00
2019-01-23T08:46:46.527Z,1548.00
2019-01-23T08:47:54.048Z,1544.00
2019-01-23T08:48:54.043Z,1552.00
2019-01-23T08:51:02.664Z,1596.00
2019-01-23T08:52:02.650Z,1628.00
2019-01-23T08:53:10.201Z,1668.00
2019-01-23T08:54:11.185Z,1692.00
2019-01-23T08:55:09.661Z,1700.00
2019-01-23T08:56:11.503Z,1732.00
2019-01-23T08:57:02.594Z,1808.00
2019-01-23T08:58:02.575Z,1912.00
2019-01-23T08:59:02.589Z,2008.00
2019-01-23T09:00:02.552Z,2084.00
2019-01-23T09:01:11.540Z,2144.00
2019-01-23T09:02:02.530Z,2204.00
2019-01-23T09:03:02.529Z,2244.00
2019-01-23T09:04:02.516Z,2240.00
2019-01-23T09:05:02.502Z,2264.00
2019-01-23T09:06:02.524Z,2272.00
2019-01-23T09:07:02.477Z,2260.00
2019-01-23T09:08:02.472Z,2244.00
2019-01-23T09:09:11.019Z,2236.00
2019-01-23T09:10:02.447Z,2224.00
2019-01-23T09:11:02.457Z,2208.00
2019-01-23T09:12:02.431Z,2212.00
2019-01-23T09:13:02.415Z,2276.00
2019-01-23T09:14:02.430Z,2368.00
2019-01-23T09:15:02.412Z,2472.00
2019-01-23T09:16:02.409Z,2576.00
2019-01-23T09:17:02.376Z,2664.00
2019-01-23T09:18:02.393Z,2700.00
2019-01-23T09:19:02.397Z,2736.00
2019-01-23T09:20:02.362Z,2776.00
2019-01-23T09:21:02.335Z,2752.00
2019-01-23T09:22:02.348Z,2724.00
2019-01-23T09:23:02.338Z,2684.00
2019-01-23T09:24:02.299Z,2612.00
2019-01-23T09:25:02.293Z,2552.00
2019-01-23T09:26:02.297Z,2568.00
2019-01-23T09:27:02.296Z,2692.00
2019-01-23T09:28:02.259Z,2768.00
2019-01-23T09:29:02.253Z,2828.00
2019-01-23T09:30:02.241Z,2840.00
2019-01-23T09:31:02.252Z,2856.00
2019-01-23T09:32:02.222Z,2820.00
2019-01-23T09:33:02.249Z,2804.00
2019-01-23T09:34:02.201Z,2804.00
2019-01-23T09:35:02.183Z,2808.00
2019-01-23T09:36:02.183Z,2724.00
2019-01-23T09:37:02.169Z,2764.00
2019-01-23T09:38:02.196Z,2768.00
2019-01-23T09:39:02.208Z,2872.00
2019-01-23T09:40:02.131Z,3056.00
2019-01-23T09:41:02.136Z,3156.00
2019-01-23T09:42:02.123Z,3300.00
2019-01-23T09:43:02.158Z,3348.00
2019-01-23T09:44:02.132Z,3240.00
2019-01-23T09:45:02.103Z,3172.00
2019-01-23T09:46:02.070Z,3092.00
2019-01-23T09:47:02.068Z,3028.00
2019-01-23T09:48:02.049Z,2916.00
2019-01-23T09:49:02.046Z,2940.00
2019-01-23T09:50:02.052Z,2940.00
2019-01-23T09:51:02.018Z,2936.00
2019-01-23T09:52:02.027Z,3072.00
2019-01-23T09:53:01.996Z,3276.00
2019-01-23T09:54:02.005Z,3420.00
2019-01-23T09:55:01.999Z,3540.00
2019-01-23T09:56:01.971Z,3576.00
2019-01-23T09:57:01.958Z,3684.00
2019-01-23T09:58:01.947Z,3588.00
2019-01-23T09:59:02.664Z,3816.00
2019-01-23T10:00:01.950Z,3780.00
2019-01-23T10:01:01.924Z,3732.00
2019-01-23T10:02:01.908Z,3476.00
2019-01-23T10:03:01.891Z,3428.00
2019-01-23T10:04:01.880Z,3448.00
2019-01-23T10:05:01.913Z,3476.00
2019-01-23T10:06:01.883Z,3408.00
2019-01-23T10:07:01.848Z,3672.00
2019-01-23T10:08:01.839Z,3416.00
2019-01-23T10:09:01.837Z,3408.00
2019-01-23T10:10:01.848Z,3312.00
2019-01-23T10:11:01.861Z,3268.00
2019-01-23T10:12:01.796Z,3320.00
2019-01-23T10:13:01.802Z,3236.00
2019-01-23T10:14:01.776Z,3344.00
2019-01-23T10:15:01.792Z,3304.00
2019-01-23T10:16:01.774Z,3128.00
2019-01-23T10:17:01.745Z,3356.00
2019-01-23T10:18:01.733Z,3380.00
2019-01-23T10:19:01.719Z,3356.00
2019-01-23T10:20:01.713Z,3336.00
2019-01-23T10:21:01.718Z,3328.00
2019-01-23T10:22:01.707Z,3352.00
2019-01-23T10:23:01.675Z,3376.00
2019-01-23T10:24:01.704Z,3364.00
2019-01-23T10:25:01.677Z,3336.00
2019-01-23T10:26:01.668Z,3316.00
2019-01-23T10:27:01.640Z,3316.00
2019-01-23T10:28:01.637Z,3320.00
2019-01-23T10:29:01.622Z,3372.00
2019-01-23T10:30:01.610Z,3436.00
2019-01-23T10:31:06.561Z,3480.00
2019-01-23T10:32:02.590Z,3588.00
2019-01-23T10:33:01.583Z,3632.00
2019-01-23T10:34:01.560Z,3704.00
2019-01-23T10:35:01.561Z,3736.00
2019-01-23T10:36:01.585Z,3788.00
2019-01-23T10:37:01.540Z,3880.00
2019-01-23T10:38:01.526Z,3896.00
2019-01-23T10:39:01.511Z,3892.00
2019-01-23T10:40:01.507Z,3876.00
2019-01-23T10:41:01.491Z,3912.00
2019-01-23T10:42:01.506Z,3772.00
2019-01-23T10:43:01.473Z,3692.00
2019-01-23T10:44:01.472Z,3724.00
2019-01-23T10:45:01.457Z,3772.00
2019-01-23T10:46:01.435Z,3732.00
2019-01-23T10:47:01.473Z,3732.00
2019-01-23T10:48:01.438Z,3744.00
2019-01-23T10:49:01.411Z,3756.00
2019-01-23T10:50:01.431Z,3692.00
2019-01-23T10:51:01.389Z,3788.00
2019-01-23T10:52:01.386Z,4052.00
2019-01-23T10:53:01.381Z,4100.00
2019-01-23T10:54:01.372Z,4216.00
2019-01-23T10:55:01.350Z,4204.00
2019-01-23T10:56:01.369Z,3984.00
2019-01-23T10:57:01.320Z,3868.00
2019-01-23T10:58:01.325Z,3724.00
2019-01-23T10:59:01.339Z,3788.00
2019-01-23T11:00:01.291Z,3900.00
2019-01-23T11:01:01.308Z,4044.00
2019-01-23T11:02:01.276Z,3988.00
2019-01-23T11:03:01.256Z,3876.00
2019-01-23T11:04:01.266Z,3888.00
2019-01-23T11:05:01.237Z,4028.00
2019-01-23T11:06:01.223Z,4088.00
2019-01-23T11:07:01.213Z,4160.00
2019-01-23T11:08:01.209Z,4004.00
2019-01-23T11:09:01.210Z,3856.00
2019-01-23T11:10:01.205Z,3704.00
2019-01-23T11:11:01.170Z,3684.00
2019-01-23T11:12:01.288Z,3608.00
2019-01-23T11:13:01.160Z,3408.00
2019-01-23T11:14:01.165Z,3284.00
2019-01-23T11:15:01.134Z,3148.00
2019-01-23T11:16:01.129Z,3044.00
2019-01-23T11:17:01.124Z,3120.00
2019-01-23T11:18:01.101Z,3416.00
2019-01-23T11:19:01.152Z,3388.00
2019-01-23T11:20:01.121Z,3324.00
2019-01-23T11:21:01.210Z,3204.00
2019-01-23T11:22:01.067Z,2948.00
2019-01-23T11:23:01.054Z,2912.00
2019-01-23T11:24:01.051Z,2948.00
2019-01-23T11:25:01.030Z,3100.00
2019-01-23T11:26:01.046Z,3236.00
2019-01-23T11:27:01.005Z,3216.00
2019-01-23T11:28:00.996Z,3064.00
2019-01-23T11:29:01.060Z,3064.00
2019-01-23T11:30:00.980Z,3156.00
2019-01-23T11:31:00.987Z,3160.00
2019-01-23T11:32:00.955Z,2960.00
2019-01-23T11:33:00.941Z,2960.00
2019-01-23T11:34:00.941Z,2960.00
2019-01-23T11:35:00.946Z,3028.00
2019-01-23T11:36:00.906Z,3444.00
2019-01-23T11:37:00.906Z,4148.00
2019-01-23T11:38:00.924Z,4456.00
2019-01-23T11:39:00.876Z,4596.00
2019-01-23T11:40:00.866Z,4872.00
2019-01-23T11:41:00.875Z,5012.00
2019-01-23T11:42:00.855Z,4804.00
2019-01-23T11:43:00.880Z,4456.00
2019-01-23T11:44:00.846Z,4044.00
2019-01-23T11:45:00.811Z,3832.00
2019-01-23T11:46:00.820Z,3624.00
2019-01-23T11:47:00.797Z,3464.00
2019-01-23T11:48:00.788Z,3876.00
2019-01-23T11:49:00.770Z,4488.00
2019-01-23T11:50:00.764Z,4680.00
2019-01-23T11:51:00.772Z,4416.00
2019-01-23T11:52:01.130Z,4352.00
2019-01-23T11:53:00.755Z,4144.00
2019-01-23T11:54:00.723Z,3876.00
2019-01-23T11:55:00.736Z,3800.00
2019-01-23T11:56:00.738Z,3572.00
2019-01-23T11:57:00.691Z,3348.00
2019-01-23T11:58:00.678Z,3128.00
2019-01-23T11:59:00.674Z,2996.00
2019-01-23T12:00:00.662Z,3076.00
2019-01-23T12:01:00.668Z,3144.00
2019-01-23T12:02:00.662Z,3568.00
2019-01-23T12:03:00.629Z,3624.00
2019-01-23T12:04:00.615Z,3704.00
2019-01-23T12:05:00.608Z,3552.00
2019-01-23T12:06:00.612Z,3316.00
2019-01-23T12:07:00.585Z,3060.00
2019-01-23T12:08:00.570Z,3008.00
2019-01-23T12:09:00.564Z,3016.00
2019-01-23T12:10:00.575Z,3068.00
2019-01-23T12:11:00.631Z,3140.00
2019-01-23T12:12:00.563Z,3112.00
2019-01-23T12:13:00.520Z,3016.00
2019-01-23T12:14:00.566Z,2928.00
2019-01-23T12:15:00.498Z,2896.00
2019-01-23T12:16:00.488Z,2960.00
2019-01-23T12:17:00.484Z,2892.00
2019-01-23T12:18:00.488Z,2788.00
2019-01-23T12:19:00.458Z,2688.00
2019-01-23T12:20:00.445Z,2612.00
2019-01-23T12:21:00.441Z,2480.00
2019-01-23T12:22:00.430Z,2324.00
2019-01-23T12:23:00.470Z,2340.00
2019-01-23T12:24:00.400Z,2576.00
2019-01-23T12:25:00.428Z,2868.00
2019-01-23T12:26:00.387Z,3160.00
2019-01-23T12:27:00.377Z,3432.00
2019-01-23T12:28:00.374Z,3620.00
2019-01-23T12:29:00.375Z,3756.00
2019-01-23T12:30:00.368Z,3800.00
2019-01-23T12:31:00.330Z,3296.00
2019-01-23T12:32:00.324Z,3956.00
2019-01-23T12:33:00.345Z,4148.00
2019-01-23T12:34:00.318Z,4176.00
2019-01-23T12:35:00.519Z,4252.00
2019-01-23T12:36:00.282Z,4072.00
2019-01-23T12:37:00.349Z,4028.00
2019-01-23T12:38:00.279Z,4072.00
2019-01-23T12:39:00.270Z,4016.00
2019-01-23T12:40:00.243Z,3968.00
2019-01-23T12:41:00.246Z,4108.00
2019-01-23T12:42:00.211Z,4012.00
2019-01-23T12:43:00.209Z,3772.00
2019-01-23T12:44:00.216Z,3652.00
2019-01-23T12:45:00.248Z,3416.00
2019-01-23T12:46:00.176Z,3020.00
2019-01-23T12:47:00.162Z,2916.00
2019-01-23T12:48:00.232Z,3072.00
2019-01-23T12:49:00.160Z,3172.00
2019-01-23T12:50:00.178Z,3256.00
2019-01-23T12:51:00.120Z,3512.00
2019-01-23T12:52:00.115Z,3840.00
2019-01-23T12:53:00.258Z,4208.00
2019-01-23T12:54:00.086Z,4392.00
2019-01-23T12:55:00.248Z,4412.00
2019-01-23T12:56:00.085Z,4516.00